sensor_id;sensor_type;location;lat;lon;timestamp;pressure;altitude;pressure_sealevel;temperature;humidity
8575;BME280;4325;42.520;27.448;2023-06-26T00:01:35;100482.72;;;23.69;100.00
8575;BME280;4325;42.520;27.448;2023-06-26T00:04:01;100485.38;;;23.61;100.00
8575;BME280;4325;42.520;27.448;2023-06-26T00:06:28;100488.59;;;23.63;100.00
8575;BME280;4325;42.520;27.448;2023-06-26T00:08:56;100487.00;;;23.62;100.00
8575;BME280;4325;42.520;27.448;2023-06-26T00:11:24;100482.03;;;23.56;100.00
8575;BME280;4325;42.520;27.448;2023-06-26T00:13:54;100473.59;;;23.52;100.00
8575;BME280;4325;42.520;27.448;2023-06-26T00:16:21;100489.16;;;23.53;100.00
8575;BME280;4325;42.520;27.448;2023-06-26T00:18:47;100485.94;;;23.51;100.00
8575;BME280;4325;42.520;27.448;2023-06-26T00:21:14;100485.31;;;23.42;100.00
8575;BME280;4325;42.520;27.448;2023-06-26T00:23:41;100490.03;;;23.38;100.00
8575;BME280;4325;42.520;27.448;2023-06-26T00:26:08;100480.91;;;23.41;100.00
8575;BME280;4325;42.520;27.448;2023-06-26T00:28:35;100477.75;;;23.43;100.00
8575;BME280;4325;42.520;27.448;2023-06-26T00:31:04;100477.75;;;23.43;100.00
8575;BME280;4325;42.520;27.448;2023-06-26T00:33:31;100470.00;;;23.36;100.00
8575;BME280;4325;42.520;27.448;2023-06-26T00:35:59;100465.59;;;23.35;100.00
8575;BME280;4325;42.520;27.448;2023-06-26T00:38:25;100457.47;;;23.30;100.00
8575;BME280;4325;42.520;27.448;2023-06-26T00:40:52;100458.19;;;23.27;100.00
8575;BME280;4325;42.520;27.448;2023-06-26T00:43:20;100450.25;;;23.29;100.00
8575;BME280;4325;42.520;27.448;2023-06-26T00:45:47;100451.00;;;23.26;100.00
8575;BME280;4325;42.520;27.448;2023-06-26T00:48:15;100446.13;;;23.23;100.00
8575;BME280;4325;42.520;27.448;2023-06-26T00:50:43;100442.91;;;23.21;100.00
8575;BME280;4325;42.520;27.448;2023-06-26T00:53:11;100440.94;;;23.22;100.00
8575;BME280;4325;42.520;27.448;2023-06-26T00:55:38;100441.19;;;23.17;100.00
8575;BME280;4325;42.520;27.448;2023-06-26T00:58:05;100432.28;;;23.11;100.00
8575;BME280;4325;42.520;27.448;2023-06-26T01:00:32;100431.41;;;23.07;100.00
8575;BME280;4325;42.520;27.448;2023-06-26T01:02:59;100435.53;;;22.97;100.00
8575;BME280;4325;42.520;27.448;2023-06-26T01:05:28;100432.66;;;22.94;100.00
8575;BME280;4325;42.520;27.448;2023-06-26T01:07:57;100427.72;;;22.87;100.00
8575;BME280;4325;42.520;27.448;2023-06-26T01:10:24;100438.06;;;22.87;100.00
8575;BME280;4325;42.520;27.448;2023-06-26T01:12:53;100431.56;;;22.83;100.00
8575;BME280;4325;42.520;27.448;2023-06-26T01:15:20;100429.88;;;22.78;100.00
8575;BME280;4325;42.520;27.448;2023-06-26T01:17:48;100437.72;;;22.73;100.00
8575;BME280;4325;42.520;27.448;2023-06-26T01:20:16;100428.09;;;22.70;100.00
8575;BME280;4325;42.520;27.448;2023-06-26T01:22:56;100432.03;;;22.69;100.00
8575;BME280;4325;42.520;27.448;2023-06-26T01:25:35;100434.38;;;22.67;100.00
8575;BME280;4325;42.520;27.448;2023-06-26T01:28:06;100437.44;;;22.62;100.00
8575;BME280;4325;42.520;27.448;2023-06-26T01:30:34;100441.28;;;22.58;100.00
8575;BME280;4325;42.520;27.448;2023-06-26T01:33:02;100434.34;;;22.52;100.00
8575;BME280;4325;42.520;27.448;2023-06-26T01:35:30;100430.53;;;22.44;100.00
8575;BME280;4325;42.520;27.448;2023-06-26T01:38:12;100424.88;;;22.41;100.00
8575;BME280;4325;42.520;27.448;2023-06-26T01:40:39;100434.69;;;22.34;100.00
8575;BME280;4325;42.520;27.448;2023-06-26T01:43:11;100439.34;;;22.30;100.00
8575;BME280;4325;42.520;27.448;2023-06-26T01:45:42;100436.38;;;22.23;100.00
8575;BME280;4325;42.520;27.448;2023-06-26T01:48:12;100443.38;;;22.17;100.00
8575;BME280;4325;42.520;27.448;2023-06-26T01:50:43;100438.53;;;22.14;100.00
8575;BME280;4325;42.520;27.448;2023-06-26T01:53:12;100442.22;;;22.18;100.00
8575;BME280;4325;42.520;27.448;2023-06-26T01:55:45;100438.16;;;22.16;100.00
8575;BME280;4325;42.520;27.448;2023-06-26T01:58:15;100437.78;;;22.17;100.00
8575;BME280;4325;42.520;27.448;2023-06-26T02:00:43;100429.34;;;22.14;100.00
8575;BME280;4325;42.520;27.448;2023-06-26T02:03:10;100419.34;;;22.13;100.00
8575;BME280;4325;42.520;27.448;2023-06-26T02:05:36;100427.25;;;22.11;100.00
8575;BME280;4325;42.520;27.448;2023-06-26T02:08:04;100430.88;;;22.11;100.00
8575;BME280;4325;42.520;27.448;2023-06-26T02:10:31;100408.69;;;22.03;100.00
8575;BME280;4325;42.520;27.448;2023-06-26T02:12:58;100419.97;;;22.06;100.00
8575;BME280;4325;42.520;27.448;2023-06-26T02:15:26;100412.41;;;22.07;100.00
8575;BME280;4325;42.520;27.448;2023-06-26T02:17:53;100400.81;;;22.05;100.00
8575;BME280;4325;42.520;27.448;2023-06-26T02:20:20;100413.69;;;22.09;100.00
8575;BME280;4325;42.520;27.448;2023-06-26T02:22:47;100412.50;;;22.10;100.00
8575;BME280;4325;42.520;27.448;2023-06-26T02:25:14;100417.81;;;22.15;100.00
8575;BME280;4325;42.520;27.448;2023-06-26T02:27:41;100401.91;;;22.16;100.00
8575;BME280;4325;42.520;27.448;2023-06-26T02:30:09;100405.13;;;22.18;100.00
8575;BME280;4325;42.520;27.448;2023-06-26T02:32:37;100407.59;;;22.19;100.00
8575;BME280;4325;42.520;27.448;2023-06-26T02:35:05;100410.00;;;22.21;100.00
8575;BME280;4325;42.520;27.448;2023-06-26T02:37:32;100408.81;;;22.22;100.00
8575;BME280;4325;42.520;27.448;2023-06-26T02:39:59;100415.22;;;22.22;100.00
8575;BME280;4325;42.520;27.448;2023-06-26T02:42:26;100414.78;;;22.20;100.00
8575;BME280;4325;42.520;27.448;2023-06-26T02:44:53;100424.03;;;22.09;100.00
8575;BME280;4325;42.520;27.448;2023-06-26T02:47:20;100411.22;;;22.08;100.00
8575;BME280;4325;42.520;27.448;2023-06-26T02:49:48;100407.63;;;22.07;100.00
8575;BME280;4325;42.520;27.448;2023-06-26T02:52:15;100411.59;;;22.06;100.00
8575;BME280;4325;42.520;27.448;2023-06-26T02:54:42;100410.16;;;22.12;100.00
8575;BME280;4325;42.520;27.448;2023-06-26T02:57:09;100413.75;;;22.13;100.00
8575;BME280;4325;42.520;27.448;2023-06-26T02:59:36;100408.75;;;22.18;100.00
8575;BME280;4325;42.520;27.448;2023-06-26T03:02:03;100412.44;;;22.22;100.00
8575;BME280;4325;42.520;27.448;2023-06-26T03:04:29;100406.97;;;22.26;100.00
8575;BME280;4325;42.520;27.448;2023-06-26T03:06:58;100410.31;;;22.31;100.00
8575;BME280;4325;42.520;27.448;2023-06-26T03:09:25;100412.03;;;22.36;100.00
8575;BME280;4325;42.520;27.448;2023-06-26T03:11:52;100416.53;;;22.41;100.00
8575;BME280;4325;42.520;27.448;2023-06-26T03:14:20;100413.03;;;22.44;100.00
8575;BME280;4325;42.520;27.448;2023-06-26T03:16:47;100417.84;;;22.47;100.00
8575;BME280;4325;42.520;27.448;2023-06-26T03:19:16;100412.19;;;22.43;100.00
8575;BME280;4325;42.520;27.448;2023-06-26T03:21:43;100424.97;;;22.44;100.00
8575;BME280;4325;42.520;27.448;2023-06-26T03:24:12;100432.19;;;22.45;100.00
8575;BME280;4325;42.520;27.448;2023-06-26T03:26:38;100430.38;;;22.53;100.00
8575;BME280;4325;42.520;27.448;2023-06-26T03:29:05;100424.66;;;22.61;100.00
8575;BME280;4325;42.520;27.448;2023-06-26T03:31:32;100421.25;;;22.68;100.00
8575;BME280;4325;42.520;27.448;2023-06-26T03:33:59;100422.59;;;22.74;100.00
8575;BME280;4325;42.520;27.448;2023-06-26T03:36:26;100424.38;;;22.82;100.00
8575;BME280;4325;42.520;27.448;2023-06-26T03:38:53;100430.97;;;22.89;100.00
8575;BME280;4325;42.520;27.448;2023-06-26T03:41:23;100432.41;;;22.99;100.00
8575;BME280;4325;42.520;27.448;2023-06-26T03:43:50;100426.53;;;23.04;100.00
8575;BME280;4325;42.520;27.448;2023-06-26T03:46:17;100432.44;;;23.18;100.00
8575;BME280;4325;42.520;27.448;2023-06-26T03:48:44;100429.72;;;23.37;100.00
8575;BME280;4325;42.520;27.448;2023-06-26T03:51:11;100446.22;;;23.61;100.00
8575;BME280;4325;42.520;27.448;2023-06-26T03:53:38;100433.59;;;23.87;100.00
8575;BME280;4325;42.520;27.448;2023-06-26T03:56:05;100437.72;;;24.12;100.00
8575;BME280;4325;42.520;27.448;2023-06-26T03:58:33;100437.84;;;24.38;100.00
8575;BME280;4325;42.520;27.448;2023-06-26T04:01:00;100441.16;;;24.66;100.00
8575;BME280;4325;42.520;27.448;2023-06-26T04:03:27;100441.19;;;24.89;100.00
8575;BME280;4325;42.520;27.448;2023-06-26T04:05:54;100441.13;;;25.12;100.00
8575;BME280;4325;42.520;27.448;2023-06-26T04:08:23;100440.16;;;25.27;100.00
8575;BME280;4325;42.520;27.448;2023-06-26T04:10:50;100442.66;;;25.32;100.00
8575;BME280;4325;42.520;27.448;2023-06-26T04:13:17;100451.06;;;25.32;100.00
8575;BME280;4325;42.520;27.448;2023-06-26T04:15:46;100440.38;;;25.41;100.00
8575;BME280;4325;42.520;27.448;2023-06-26T04:18:13;100449.03;;;25.55;100.00
8575;BME280;4325;42.520;27.448;2023-06-26T04:20:42;100446.09;;;25.74;100.00
8575;BME280;4325;42.520;27.448;2023-06-26T04:23:27;100446.34;;;25.95;100.00
8575;BME280;4325;42.520;27.448;2023-06-26T04:25:54;100445.03;;;26.15;100.00
8575;BME280;4325;42.520;27.448;2023-06-26T04:28:23;100443.66;;;26.36;100.00
8575;BME280;4325;42.520;27.448;2023-06-26T04:30:51;100447.09;;;26.59;100.00
8575;BME280;4325;42.520;27.448;2023-06-26T04:33:19;100451.19;;;26.65;100.00
8575;BME280;4325;42.520;27.448;2023-06-26T04:35:46;100453.59;;;26.70;100.00
8575;BME280;4325;42.520;27.448;2023-06-26T04:38:14;100456.94;;;26.79;100.00
8575;BME280;4325;42.520;27.448;2023-06-26T04:40:41;100445.78;;;26.86;100.00
8575;BME280;4325;42.520;27.448;2023-06-26T04:43:08;100454.19;;;26.86;100.00
8575;BME280;4325;42.520;27.448;2023-06-26T04:45:35;100449.81;;;26.92;100.00
8575;BME280;4325;42.520;27.448;2023-06-26T04:48:04;100458.69;;;26.94;100.00
8575;BME280;4325;42.520;27.448;2023-06-26T04:50:31;100457.81;;;26.87;100.00
8575;BME280;4325;42.520;27.448;2023-06-26T04:52:59;100460.94;;;26.78;100.00
8575;BME280;4325;42.520;27.448;2023-06-26T04:55:26;100458.38;;;26.66;100.00
8575;BME280;4325;42.520;27.448;2023-06-26T04:57:53;100470.31;;;26.56;100.00
8575;BME280;4325;42.520;27.448;2023-06-26T05:00:22;100465.41;;;26.46;100.00
8575;BME280;4325;42.520;27.448;2023-06-26T05:02:50;100466.19;;;26.43;100.00
8575;BME280;4325;42.520;27.448;2023-06-26T05:05:27;100471.09;;;26.53;100.00
8575;BME280;4325;42.520;27.448;2023-06-26T05:07:55;100470.38;;;26.63;100.00
8575;BME280;4325;42.520;27.448;2023-06-26T05:10:22;100481.88;;;26.84;100.00
8575;BME280;4325;42.520;27.448;2023-06-26T05:12:49;100473.22;;;27.03;100.00
8575;BME280;4325;42.520;27.448;2023-06-26T05:15:16;100474.19;;;27.25;100.00
8575;BME280;4325;42.520;27.448;2023-06-26T05:17:43;100491.28;;;27.49;100.00
8575;BME280;4325;42.520;27.448;2023-06-26T05:20:10;100482.97;;;27.74;100.00
8575;BME280;4325;42.520;27.448;2023-06-26T05:22:39;100477.44;;;27.95;100.00
8575;BME280;4325;42.520;27.448;2023-06-26T05:25:09;100483.16;;;28.09;100.00
8575;BME280;4325;42.520;27.448;2023-06-26T05:27:37;100480.44;;;28.34;100.00
8575;BME280;4325;42.520;27.448;2023-06-26T05:30:04;100483.72;;;28.54;95.04
8575;BME280;4325;42.520;27.448;2023-06-26T05:32:33;100494.25;;;28.74;94.47
8575;BME280;4325;42.520;27.448;2023-06-26T05:35:02;100497.50;;;29.05;94.58
8575;BME280;4325;42.520;27.448;2023-06-26T05:37:31;100493.88;;;29.25;93.76
8575;BME280;4325;42.520;27.448;2023-06-26T05:40:01;100495.09;;;29.42;91.45
8575;BME280;4325;42.520;27.448;2023-06-26T05:42:30;100499.91;;;29.45;89.52
8575;BME280;4325;42.520;27.448;2023-06-26T05:44:57;100501.13;;;29.40;87.27
8575;BME280;4325;42.520;27.448;2023-06-26T05:47:24;100496.72;;;29.32;90.03
8575;BME280;4325;42.520;27.448;2023-06-26T05:49:52;100506.81;;;29.30;89.88
8575;BME280;4325;42.520;27.448;2023-06-26T05:52:19;100506.78;;;29.05;89.36
8575;BME280;4325;42.520;27.448;2023-06-26T05:54:46;100505.56;;;28.89;88.11
8575;BME280;4325;42.520;27.448;2023-06-26T05:57:15;100514.41;;;28.76;94.06
8575;BME280;4325;42.520;27.448;2023-06-26T05:59:43;100502.69;;;28.74;95.32
8575;BME280;4325;42.520;27.448;2023-06-26T06:02:11;100499.06;;;28.67;90.85
8575;BME280;4325;42.520;27.448;2023-06-26T06:04:38;100514.38;;;28.66;91.04
8575;BME280;4325;42.520;27.448;2023-06-26T06:07:05;100508.31;;;28.67;90.84
8575;BME280;4325;42.520;27.448;2023-06-26T06:09:32;100503.03;;;28.55;91.01
8575;BME280;4325;42.520;27.448;2023-06-26T06:11:59;100507.13;;;28.61;92.74
8575;BME280;4325;42.520;27.448;2023-06-26T06:14:28;100507.13;;;28.68;93.33
8575;BME280;4325;42.520;27.448;2023-06-26T06:16:55;100503.09;;;28.73;91.84
8575;BME280;4325;42.520;27.448;2023-06-26T06:19:22;100499.91;;;28.85;92.25
8575;BME280;4325;42.520;27.448;2023-06-26T06:21:49;100501.13;;;28.95;92.27
8575;BME280;4325;42.520;27.448;2023-06-26T06:24:16;100505.16;;;28.94;91.93
8575;BME280;4325;42.520;27.448;2023-06-26T06:26:43;100502.31;;;28.87;94.19
8575;BME280;4325;42.520;27.448;2023-06-26T06:29:10;100501.91;;;28.77;95.05
8575;BME280;4325;42.520;27.448;2023-06-26T06:31:38;100499.88;;;28.64;94.27
8575;BME280;4325;42.520;27.448;2023-06-26T06:34:05;100496.56;;;28.44;96.42
8575;BME280;4325;42.520;27.448;2023-06-26T06:36:32;100498.91;;;28.25;97.35
8575;BME280;4325;42.520;27.448;2023-06-26T06:38:59;100502.88;;;28.06;98.40
8575;BME280;4325;42.520;27.448;2023-06-26T06:41:26;100485.44;;;27.83;100.00
8575;BME280;4325;42.520;27.448;2023-06-26T06:43:53;100497.94;;;27.89;100.00
8575;BME280;4325;42.520;27.448;2023-06-26T06:46:20;100492.25;;;27.82;100.00
8575;BME280;4325;42.520;27.448;2023-06-26T06:48:48;100491.84;;;27.80;100.00
8575;BME280;4325;42.520;27.448;2023-06-26T06:51:16;100495.47;;;27.77;100.00
8575;BME280;4325;42.520;27.448;2023-06-26T06:53:43;100489.00;;;27.73;100.00
8575;BME280;4325;42.520;27.448;2023-06-26T06:56:09;100501.78;;;27.60;100.00
8575;BME280;4325;42.520;27.448;2023-06-26T06:58:36;100501.66;;;27.45;100.00
8575;BME280;4325;42.520;27.448;2023-06-26T07:01:03;100493.81;;;27.21;100.00
8575;BME280;4325;42.520;27.448;2023-06-26T07:03:30;100506.16;;;27.06;100.00
8575;BME280;4325;42.520;27.448;2023-06-26T07:05:58;100501.19;;;26.89;100.00
8575;BME280;4325;42.520;27.448;2023-06-26T07:08:25;100499.75;;;26.69;100.00
8575;BME280;4325;42.520;27.448;2023-06-26T07:10:52;100500.78;;;26.50;100.00
8575;BME280;4325;42.520;27.448;2023-06-26T07:13:19;100490.94;;;26.34;100.00
8575;BME280;4325;42.520;27.448;2023-06-26T07:15:46;100500.56;;;26.33;100.00
8575;BME280;4325;42.520;27.448;2023-06-26T07:18:13;100495.03;;;26.40;100.00
8575;BME280;4325;42.520;27.448;2023-06-26T07:20:40;100495.59;;;26.56;100.00
8575;BME280;4325;42.520;27.448;2023-06-26T07:23:09;100498.19;;;26.71;100.00
8575;BME280;4325;42.520;27.448;2023-06-26T07:25:36;100499.50;;;26.81;100.00
8575;BME280;4325;42.520;27.448;2023-06-26T07:28:03;100502.31;;;26.81;100.00
8575;BME280;4325;42.520;27.448;2023-06-26T07:30:30;100493.31;;;26.65;100.00
8575;BME280;4325;42.520;27.448;2023-06-26T07:32:56;100496.22;;;26.39;100.00
8575;BME280;4325;42.520;27.448;2023-06-26T07:35:23;100505.56;;;26.16;100.00
8575;BME280;4325;42.520;27.448;2023-06-26T07:37:53;100500.56;;;25.73;100.00
8575;BME280;4325;42.520;27.448;2023-06-26T07:40:21;100506.16;;;25.21;100.00
8575;BME280;4325;42.520;27.448;2023-06-26T07:42:48;100501.63;;;24.48;100.00
8575;BME280;4325;42.520;27.448;2023-06-26T07:45:15;100505.72;;;23.78;100.00
8575;BME280;4325;42.520;27.448;2023-06-26T07:47:42;100510.13;;;23.28;100.00
8575;BME280;4325;42.520;27.448;2023-06-26T07:50:09;100509.50;;;23.04;100.00
8575;BME280;4325;42.520;27.448;2023-06-26T07:52:37;100513.91;;;22.89;100.00
8575;BME280;4325;42.520;27.448;2023-06-26T07:55:04;100512.09;;;22.81;100.00
8575;BME280;4325;42.520;27.448;2023-06-26T07:57:33;100522.34;;;22.77;100.00
8575;BME280;4325;42.520;27.448;2023-06-26T08:00:00;100513.97;;;22.77;100.00
8575;BME280;4325;42.520;27.448;2023-06-26T08:02:27;100520.38;;;22.93;100.00
8575;BME280;4325;42.520;27.448;2023-06-26T08:04:54;100525.44;;;23.03;100.00
8575;BME280;4325;42.520;27.448;2023-06-26T08:07:21;100529.94;;;23.08;100.00
8575;BME280;4325;42.520;27.448;2023-06-26T08:09:48;100531.38;;;23.17;100.00
8575;BME280;4325;42.520;27.448;2023-06-26T08:12:15;100529.28;;;23.30;100.00
8575;BME280;4325;42.520;27.448;2023-06-26T08:14:43;100533.09;;;23.53;100.00
8575;BME280;4325;42.520;27.448;2023-06-26T08:17:10;100533.19;;;23.76;100.00
8575;BME280;4325;42.520;27.448;2023-06-26T08:19:37;100536.22;;;24.02;100.00
8575;BME280;4325;42.520;27.448;2023-06-26T08:22:04;100537.41;;;24.20;100.00
8575;BME280;4325;42.520;27.448;2023-06-26T08:24:31;100540.06;;;24.32;100.00
8575;BME280;4325;42.520;27.448;2023-06-26T08:26:58;100546.41;;;24.48;100.00
8575;BME280;4325;42.520;27.448;2023-06-26T08:29:25;100551.84;;;24.60;100.00
8575;BME280;4325;42.520;27.448;2023-06-26T08:31:54;100554.09;;;24.74;100.00
8575;BME280;4325;42.520;27.448;2023-06-26T08:34:20;100550.72;;;24.84;100.00
8575;BME280;4325;42.520;27.448;2023-06-26T08:36:47;100561.66;;;24.92;100.00
8575;BME280;4325;42.520;27.448;2023-06-26T08:39:14;100566.16;;;24.97;100.00
8575;BME280;4325;42.520;27.448;2023-06-26T08:41:41;100570.78;;;25.09;100.00
8575;BME280;4325;42.520;27.448;2023-06-26T08:44:08;100567.38;;;25.19;100.00
8575;BME280;4325;42.520;27.448;2023-06-26T08:46:36;100571.88;;;25.27;100.00
8575;BME280;4325;42.520;27.448;2023-06-26T08:49:18;100573.63;;;25.35;100.00
8575;BME280;4325;42.520;27.448;2023-06-26T08:51:52;100563.53;;;25.53;100.00
8575;BME280;4325;42.520;27.448;2023-06-26T08:54:27;100573.53;;;25.77;100.00
8575;BME280;4325;42.520;27.448;2023-06-26T08:56:55;100561.06;;;26.00;100.00
8575;BME280;4325;42.520;27.448;2023-06-26T08:59:23;100567.84;;;26.26;100.00
8575;BME280;4325;42.520;27.448;2023-06-26T09:01:51;100577.44;;;26.58;100.00
8575;BME280;4325;42.520;27.448;2023-06-26T09:04:19;100572.28;;;26.93;100.00
8575;BME280;4325;42.520;27.448;2023-06-26T09:06:46;100571.66;;;27.14;100.00
8575;BME280;4325;42.520;27.448;2023-06-26T09:09:13;100583.41;;;27.23;100.00
8575;BME280;4325;42.520;27.448;2023-06-26T09:11:40;100581.03;;;27.28;100.00
8575;BME280;4325;42.520;27.448;2023-06-26T09:14:07;100597.88;;;27.25;100.00
8575;BME280;4325;42.520;27.448;2023-06-26T09:16:39;100594.59;;;27.19;100.00
8575;BME280;4325;42.520;27.448;2023-06-26T09:19:09;100603.81;;;27.16;100.00
8575;BME280;4325;42.520;27.448;2023-06-26T09:21:39;100602.63;;;27.17;100.00
8575;BME280;4325;42.520;27.448;2023-06-26T09:24:07;100605.03;;;27.15;100.00
8575;BME280;4325;42.520;27.448;2023-06-26T09:26:36;100613.94;;;27.24;100.00
8575;BME280;4325;42.520;27.448;2023-06-26T09:29:04;100598.41;;;27.37;100.00
8575;BME280;4325;42.520;27.448;2023-06-26T09:31:32;100602.59;;;27.54;100.00
8575;BME280;4325;42.520;27.448;2023-06-26T09:34:00;100606.78;;;27.78;100.00
8575;BME280;4325;42.520;27.448;2023-06-26T09:36:28;100605.81;;;28.07;100.00
8575;BME280;4325;42.520;27.448;2023-06-26T09:39:00;100601.16;;;28.39;100.00
8575;BME280;4325;42.520;27.448;2023-06-26T09:41:27;100598.81;;;28.55;96.78
8575;BME280;4325;42.520;27.448;2023-06-26T09:43:54;100602.94;;;28.68;93.61
8575;BME280;4325;42.520;27.448;2023-06-26T09:46:24;100601.00;;;28.94;93.00
8575;BME280;4325;42.520;27.448;2023-06-26T09:48:58;100593.81;;;29.24;91.93
8575;BME280;4325;42.520;27.448;2023-06-26T09:51:25;100604.31;;;29.52;90.57
8575;BME280;4325;42.520;27.448;2023-06-26T09:53:52;100604.69;;;29.75;84.54
8575;BME280;4325;42.520;27.448;2023-06-26T09:56:20;100603.06;;;30.10;82.14
8575;BME280;4325;42.520;27.448;2023-06-26T09:58:47;100604.22;;;30.37;81.43
8575;BME280;4325;42.520;27.448;2023-06-26T10:01:17;100596.91;;;30.50;76.53
8575;BME280;4325;42.520;27.448;2023-06-26T10:03:44;100601.19;;;30.79;73.38
8575;BME280;4325;42.520;27.448;2023-06-26T10:06:12;100593.81;;;31.06;72.73
8575;BME280;4325;42.520;27.448;2023-06-26T10:08:39;100592.94;;;31.16;71.24
8575;BME280;4325;42.520;27.448;2023-06-26T10:11:11;100591.41;;;31.05;70.94
8575;BME280;4325;42.520;27.448;2023-06-26T10:13:43;100593.16;;;30.74;68.46
8575;BME280;4325;42.520;27.448;2023-06-26T10:16:12;100584.44;;;30.30;68.83
8575;BME280;4325;42.520;27.448;2023-06-26T10:18:40;100580.50;;;29.81;72.34
8575;BME280;4325;42.520;27.448;2023-06-26T10:21:08;100586.16;;;29.39;76.63
8575;BME280;4325;42.520;27.448;2023-06-26T10:23:36;100586.47;;;28.99;80.33
8575;BME280;4325;42.520;27.448;2023-06-26T10:26:07;100577.53;;;28.65;82.74
8575;BME280;4325;42.520;27.448;2023-06-26T10:28:35;100578.66;;;28.46;85.07
8575;BME280;4325;42.520;27.448;2023-06-26T10:31:06;100569.03;;;28.47;85.37
8575;BME280;4325;42.520;27.448;2023-06-26T10:33:35;100560.53;;;28.44;86.15
8575;BME280;4325;42.520;27.448;2023-06-26T10:36:15;100562.56;;;28.50;87.11
8575;BME280;4325;42.520;27.448;2023-06-26T10:38:49;100565.50;;;28.64;86.27
8575;BME280;4325;42.520;27.448;2023-06-26T10:41:19;100558.69;;;28.83;83.37
8575;BME280;4325;42.520;27.448;2023-06-26T10:43:49;100554.63;;;28.77;80.45
8575;BME280;4325;42.520;27.448;2023-06-26T10:46:18;100566.31;;;28.75;80.06
8575;BME280;4325;42.520;27.448;2023-06-26T10:49:00;100561.88;;;28.74;79.80
8575;BME280;4325;42.520;27.448;2023-06-26T10:51:27;100563.06;;;28.66;78.34
8575;BME280;4325;42.520;27.448;2023-06-26T10:53:54;100558.88;;;27.64;100.00
8575;BME280;4325;42.520;27.448;2023-06-26T10:56:41;100557.72;;;26.84;100.00
8575;BME280;4325;42.520;27.448;2023-06-26T10:59:13;100566.34;;;26.65;100.00
8575;BME280;4325;42.520;27.448;2023-06-26T11:01:43;100550.50;;;26.50;100.00
8575;BME280;4325;42.520;27.448;2023-06-26T11:04:12;100556.63;;;26.26;100.00
8575;BME280;4325;42.520;27.448;2023-06-26T11:06:40;100546.84;;;25.86;100.00
8575;BME280;4325;42.520;27.448;2023-06-26T11:09:09;100539.38;;;25.71;100.00
8575;BME280;4325;42.520;27.448;2023-06-26T11:11:56;100543.66;;;25.62;100.00
8575;BME280;4325;42.520;27.448;2023-06-26T11:14:27;100532.41;;;25.35;100.00
8575;BME280;4325;42.520;27.448;2023-06-26T11:16:56;100530.53;;;25.20;100.00
8575;BME280;4325;42.520;27.448;2023-06-26T11:19:26;100534.03;;;25.14;100.00
8575;BME280;4325;42.520;27.448;2023-06-26T11:21:58;100531.03;;;25.26;100.00
8575;BME280;4325;42.520;27.448;2023-06-26T11:24:26;100540.09;;;25.42;100.00
8575;BME280;4325;42.520;27.448;2023-06-26T11:26:53;100536.03;;;25.36;100.00
8575;BME280;4325;42.520;27.448;2023-06-26T11:29:20;100533.16;;;25.10;100.00
8575;BME280;4325;42.520;27.448;2023-06-26T11:31:46;100529.44;;;24.79;100.00
8575;BME280;4325;42.520;27.448;2023-06-26T11:34:15;100530.34;;;24.45;100.00
8575;BME280;4325;42.520;27.448;2023-06-26T11:36:42;100544.22;;;24.03;100.00
8575;BME280;4325;42.520;27.448;2023-06-26T11:39:12;100544.84;;;23.78;100.00
8575;BME280;4325;42.520;27.448;2023-06-26T11:41:40;100544.66;;;23.71;100.00
8575;BME280;4325;42.520;27.448;2023-06-26T11:44:08;100550.38;;;23.58;100.00
8575;BME280;4325;42.520;27.448;2023-06-26T11:46:36;100551.72;;;23.64;100.00
8575;BME280;4325;42.520;27.448;2023-06-26T11:49:03;100555.06;;;23.54;100.00
8575;BME280;4325;42.520;27.448;2023-06-26T11:51:32;100558.84;;;23.62;100.00
8575;BME280;4325;42.520;27.448;2023-06-26T11:54:01;100569.38;;;23.69;100.00
8575;BME280;4325;42.520;27.448;2023-06-26T11:56:29;100572.63;;;23.71;100.00
8575;BME280;4325;42.520;27.448;2023-06-26T11:58:58;100567.50;;;23.73;100.00
8575;BME280;4325;42.520;27.448;2023-06-26T12:01:26;100571.56;;;23.59;100.00
8575;BME280;4325;42.520;27.448;2023-06-26T12:03:58;100579.50;;;23.57;100.00
8575;BME280;4325;42.520;27.448;2023-06-26T12:06:27;100576.72;;;23.26;100.00
8575;BME280;4325;42.520;27.448;2023-06-26T12:08:55;100570.03;;;23.31;100.00
8575;BME280;4325;42.520;27.448;2023-06-26T12:11:23;100566.00;;;23.44;100.00
8575;BME280;4325;42.520;27.448;2023-06-26T12:13:51;100584.00;;;23.78;100.00
8575;BME280;4325;42.520;27.448;2023-06-26T12:16:18;100566.97;;;24.02;100.00
8575;BME280;4325;42.520;27.448;2023-06-26T12:18:46;100568.91;;;24.17;100.00
8575;BME280;4325;42.520;27.448;2023-06-26T12:21:28;100572.00;;;24.12;100.00
8575;BME280;4325;42.520;27.448;2023-06-26T12:24:00;100574.72;;;24.08;100.00
8575;BME280;4325;42.520;27.448;2023-06-26T12:26:27;100570.50;;;23.99;100.00
8575;BME280;4325;42.520;27.448;2023-06-26T12:29:01;100568.56;;;24.03;100.00
8575;BME280;4325;42.520;27.448;2023-06-26T12:31:28;100577.09;;;23.91;100.00
8575;BME280;4325;42.520;27.448;2023-06-26T12:33:55;100572.22;;;23.88;100.00
8575;BME280;4325;42.520;27.448;2023-06-26T12:36:23;100578.56;;;23.85;100.00
8575;BME280;4325;42.520;27.448;2023-06-26T12:38:50;100581.28;;;23.81;100.00
8575;BME280;4325;42.520;27.448;2023-06-26T12:41:18;100585.19;;;23.96;100.00
8575;BME280;4325;42.520;27.448;2023-06-26T12:43:46;100583.00;;;24.05;100.00
8575;BME280;4325;42.520;27.448;2023-06-26T12:46:13;100587.19;;;24.30;100.00
8575;BME280;4325;42.520;27.448;2023-06-26T12:48:40;100583.81;;;24.21;100.00
8575;BME280;4325;42.520;27.448;2023-06-26T12:51:10;100584.63;;;24.21;100.00
8575;BME280;4325;42.520;27.448;2023-06-26T12:53:37;100586.53;;;24.37;100.00
8575;BME280;4325;42.520;27.448;2023-06-26T12:56:05;100587.03;;;24.42;100.00
8575;BME280;4325;42.520;27.448;2023-06-26T12:58:34;100594.13;;;24.36;100.00